createdAt,value
2017-05-20T00:00:12.995Z,1007.03
2017-05-20T00:01:14.423Z,1007.02
2017-05-20T00:02:15.857Z,1007.04
2017-05-20T00:03:17.291Z,1007.08
2017-05-20T00:04:18.718Z,1007.02
2017-05-20T00:05:20.152Z,1007.03
2017-05-20T00:06:21.575Z,1007.03
2017-05-20T00:07:23.005Z,1007.04
2017-05-20T00:08:24.438Z,1007.08
2017-05-20T00:09:25.944Z,1007.07
2017-05-20T00:10:27.375Z,1007.10
2017-05-20T00:11:28.800Z,1007.09
2017-05-20T00:12:30.228Z,1007.11
2017-05-20T00:13:31.765Z,1007.11
2017-05-20T00:14:33.209Z,1007.12
2017-05-20T00:15:34.631Z,1007.17
2017-05-20T00:16:36.060Z,1007.19
2017-05-20T00:17:37.485Z,1007.14
2017-05-20T00:18:38.908Z,1007.18
2017-05-20T00:19:40.349Z,1007.18
2017-05-20T00:20:41.779Z,1007.15
2017-05-20T00:21:43.214Z,1007.21
2017-05-20T00:22:44.638Z,1007.11
2017-05-20T00:23:46.064Z,1007.09
2017-05-20T00:24:47.510Z,1007.12
2017-05-20T00:25:48.961Z,1007.07
2017-05-20T00:26:50.382Z,1007.09
2017-05-20T00:27:51.813Z,1007.04
2017-05-20T00:28:53.238Z,1006.98
2017-05-20T00:29:54.663Z,1007.02
2017-05-20T00:30:56.087Z,1007.03
2017-05-20T00:31:57.513Z,1007.03
2017-05-20T00:32:58.954Z,1007.07
2017-05-20T00:34:00.374Z,1007.02
2017-05-20T00:35:01.801Z,1007.04
2017-05-20T00:36:03.232Z,1007.08
2017-05-20T00:37:04.657Z,1007.09
2017-05-20T00:38:06.084Z,1007.06
2017-05-20T00:39:07.514Z,1007.08
2017-05-20T00:40:08.938Z,1007.12
2017-05-20T00:41:10.365Z,1007.11
2017-05-20T00:42:11.790Z,1007.11
2017-05-20T00:43:13.221Z,1007.16
2017-05-20T00:44:14.647Z,1007.17
2017-05-20T00:45:16.069Z,1007.16
2017-05-20T00:46:17.513Z,1007.17
2017-05-20T00:47:19.004Z,1007.20
2017-05-20T00:48:20.421Z,1007.21
2017-05-20T00:49:21.848Z,1007.19
2017-05-20T00:50:23.278Z,1007.17
2017-05-20T00:51:24.705Z,1007.18
2017-05-20T00:52:26.128Z,1007.20
2017-05-20T00:53:27.553Z,1007.18
2017-05-20T00:54:28.986Z,1007.22
2017-05-20T00:55:30.425Z,1007.23
2017-05-20T00:56:31.865Z,1007.17
2017-05-20T00:57:33.293Z,1007.24
2017-05-20T00:58:34.725Z,1007.19
2017-05-20T00:59:36.159Z,1007.19
2017-05-20T01:00:37.587Z,1007.16
2017-05-20T01:01:39.012Z,1007.20
2017-05-20T01:02:40.440Z,1007.12
2017-05-20T01:03:41.864Z,1007.11
2017-05-20T01:04:43.292Z,1007.12
2017-05-20T01:05:44.717Z,1007.16
2017-05-20T01:06:46.141Z,1007.11
2017-05-20T01:07:47.591Z,1007.12
2017-05-20T01:08:49.060Z,1007.10
2017-05-20T01:09:50.488Z,1007.09
2017-05-20T01:10:51.938Z,1007.06
2017-05-20T01:11:53.380Z,1007.04
2017-05-20T01:12:54.814Z,1007.10
2017-05-20T01:13:56.235Z,1007.05
2017-05-20T01:14:57.660Z,1007.04
2017-05-20T01:15:59.090Z,1007.04
2017-05-20T01:17:00.512Z,1007.09
2017-05-20T01:18:01.950Z,1007.07
2017-05-20T01:19:03.380Z,1007.10
2017-05-20T01:20:04.809Z,1007.03
2017-05-20T01:21:06.234Z,1007.03
2017-05-20T01:22:08.200Z,1007.00
2017-05-20T01:23:10.352Z,1007.01
2017-05-20T01:24:11.778Z,1007.02
2017-05-20T01:25:13.205Z,1007.02
2017-05-20T01:26:14.632Z,1007.04
2017-05-20T01:27:16.060Z,1006.98
2017-05-20T01:28:17.497Z,1006.95
2017-05-20T01:29:19.806Z,1006.94
2017-05-20T01:30:21.242Z,1006.94
2017-05-20T01:31:22.670Z,1006.97
2017-05-20T01:32:24.086Z,1007.00
2017-05-20T01:33:25.513Z,1007.07
2017-05-20T01:34:27.880Z,1007.05
2017-05-20T01:35:29.301Z,1007.11
2017-05-20T01:36:30.729Z,1007.11
2017-05-20T01:37:32.151Z,1007.09
2017-05-20T01:38:33.583Z,1007.12
2017-05-20T01:39:35.009Z,1007.14
2017-05-20T01:40:36.429Z,1007.19
2017-05-20T01:41:37.924Z,1007.19
2017-05-20T01:42:39.353Z,1007.25
2017-05-20T01:43:41.571Z,1007.24
2017-05-20T01:44:42.998Z,1007.25
2017-05-20T01:45:44.420Z,1007.26
2017-05-20T01:46:45.849Z,1007.24
2017-05-20T01:47:47.277Z,1007.26
2017-05-20T01:48:49.189Z,1007.28
2017-05-20T01:49:50.617Z,1007.32
2017-05-20T01:50:52.048Z,1007.31
2017-05-20T01:51:53.474Z,1007.29
2017-05-20T01:52:54.894Z,1007.23
2017-05-20T01:53:56.320Z,1007.26
2017-05-20T01:54:57.741Z,1007.23
2017-05-20T01:55:59.162Z,1007.31
2017-05-20T01:57:00.592Z,1007.32
2017-05-20T01:58:02.021Z,1007.27
2017-05-20T01:59:03.465Z,1007.27
2017-05-20T02:00:04.899Z,1007.32
2017-05-20T02:01:06.331Z,1007.35
2017-05-20T02:02:07.779Z,1007.33
2017-05-20T02:03:09.210Z,1007.31
2017-05-20T02:04:10.632Z,1007.32
2017-05-20T02:05:12.060Z,1007.30
2017-05-20T02:06:13.484Z,1007.30
2017-05-20T02:07:14.913Z,1007.30
2017-05-20T02:08:16.338Z,1007.31
2017-05-20T02:09:17.765Z,1007.36
2017-05-20T02:10:19.204Z,1007.32
2017-05-20T02:11:20.632Z,1007.35
2017-05-20T02:12:22.060Z,1007.36
2017-05-20T02:13:23.486Z,1007.37
2017-05-20T02:14:24.915Z,1007.41
2017-05-20T02:15:26.342Z,1007.34
2017-05-20T02:16:27.766Z,1007.37
2017-05-20T02:17:29.188Z,1007.38
2017-05-20T02:18:30.612Z,1007.39
2017-05-20T02:19:32.039Z,1007.40
2017-05-20T02:20:33.466Z,1007.42
2017-05-20T02:21:34.888Z,1007.38
2017-05-20T02:22:36.318Z,1007.37
2017-05-20T02:23:37.745Z,1007.40
2017-05-20T02:24:39.180Z,1007.39
2017-05-20T02:25:40.601Z,1007.38
2017-05-20T02:26:42.032Z,1007.42
2017-05-20T02:27:43.462Z,1007.42
2017-05-20T02:28:44.883Z,1007.40
2017-05-20T02:29:46.304Z,1007.40
2017-05-20T02:30:47.735Z,1007.40
2017-05-20T02:31:49.160Z,1007.43
2017-05-20T02:32:50.587Z,1007.44
2017-05-20T02:33:52.016Z,1007.42
2017-05-20T02:34:53.431Z,1007.50
2017-05-20T02:35:54.850Z,1007.52
2017-05-20T02:36:56.275Z,1007.51
2017-05-20T02:37:57.700Z,1007.50
2017-05-20T02:38:59.129Z,1007.51
2017-05-20T02:40:00.560Z,1007.57
2017-05-20T02:41:01.985Z,1007.57
2017-05-20T02:42:04.331Z,1007.54
2017-05-20T02:43:05.749Z,1007.57
2017-05-20T02:44:07.175Z,1007.49
2017-05-20T02:45:08.604Z,1007.50
2017-05-20T02:46:10.037Z,1007.52
2017-05-20T02:47:11.461Z,1007.52
2017-05-20T02:48:13.817Z,1007.54
2017-05-20T02:49:15.245Z,1007.58
2017-05-20T02:50:16.679Z,1007.59
2017-05-20T02:51:18.104Z,1007.65
2017-05-20T02:52:19.525Z,1007.62
2017-05-20T02:53:20.955Z,1007.63
2017-05-20T02:54:22.406Z,1007.66
2017-05-20T02:55:24.442Z,1007.63
2017-05-20T02:56:25.867Z,1007.68
2017-05-20T02:57:27.294Z,1007.65
2017-05-20T02:58:28.718Z,1007.66
2017-05-20T02:59:30.148Z,1007.64
2017-05-20T03:00:31.588Z,1007.62
2017-05-20T03:01:33.013Z,1007.67
2017-05-20T03:02:34.440Z,1007.63
2017-05-20T03:03:35.865Z,1007.63
2017-05-20T03:04:38.197Z,1007.60
2017-05-20T03:05:39.631Z,1007.63
2017-05-20T03:06:41.063Z,1007.60
2017-05-20T03:07:42.480Z,1007.56
2017-05-20T03:08:43.911Z,1007.54
2017-05-20T03:09:45.341Z,1007.55
2017-05-20T03:10:46.766Z,1007.53
2017-05-20T03:11:48.191Z,1007.54
2017-05-20T03:12:49.614Z,1007.49
2017-05-20T03:13:51.041Z,1007.50
2017-05-20T03:14:52.468Z,1007.47
2017-05-20T03:15:53.901Z,1007.49
2017-05-20T03:16:55.314Z,1007.53
2017-05-20T03:17:56.747Z,1007.50
2017-05-20T03:18:58.177Z,1007.49
2017-05-20T03:20:00.263Z,1007.54
2017-05-20T03:21:01.695Z,1007.51
2017-05-20T03:22:03.777Z,1007.50
2017-05-20T03:23:05.200Z,1007.48
2017-05-20T03:24:06.635Z,1007.45
2017-05-20T03:25:08.067Z,1007.50
2017-05-20T03:26:09.489Z,1007.47
2017-05-20T03:27:10.924Z,1007.50
2017-05-20T03:28:12.358Z,1007.52
2017-05-20T03:29:13.792Z,1007.55
2017-05-20T03:30:15.215Z,1007.53
2017-05-20T03:31:16.634Z,1007.55
2017-05-20T03:32:18.070Z,1007.55
2017-05-20T03:33:19.494Z,1007.59
2017-05-20T03:34:20.919Z,1007.63
2017-05-20T03:35:22.346Z,1007.66
2017-05-20T03:36:23.774Z,1007.66
2017-05-20T03:37:25.197Z,1007.66
2017-05-20T03:38:26.629Z,1007.66
2017-05-20T03:39:28.052Z,1007.72
2017-05-20T03:40:29.481Z,1007.70
2017-05-20T03:41:30.902Z,1007.73
2017-05-20T03:42:32.336Z,1007.73
2017-05-20T03:43:33.755Z,1007.76
2017-05-20T03:44:35.183Z,1007.76
2017-05-20T03:45:36.609Z,1007.77
2017-05-20T03:46:38.050Z,1007.78
2017-05-20T03:47:39.478Z,1007.83
2017-05-20T03:48:40.910Z,1007.89
2017-05-20T03:49:42.334Z,1007.86
2017-05-20T03:50:43.759Z,1007.85
2017-05-20T03:51:45.215Z,1007.91
2017-05-20T03:52:46.794Z,1007.95
2017-05-20T03:53:48.203Z,1007.94
2017-05-20T03:54:49.626Z,1007.97
2017-05-20T03:55:51.050Z,1007.94
2017-05-20T03:56:52.484Z,1007.95
2017-05-20T03:57:53.921Z,1007.95
2017-05-20T03:58:55.354Z,1008.00
2017-05-20T03:59:56.839Z,1007.96
2017-05-20T04:00:58.214Z,1007.92
2017-05-20T04:01:59.701Z,1007.96
2017-05-20T04:03:01.139Z,1007.98
2017-05-20T04:04:02.561Z,1007.95
2017-05-20T04:05:04.011Z,1007.95
2017-05-20T04:06:05.435Z,1007.94
2017-05-20T04:07:06.865Z,1007.95
2017-05-20T04:08:08.287Z,1007.95
2017-05-20T04:09:09.714Z,1008.00
2017-05-20T04:10:11.140Z,1007.98
2017-05-20T04:11:12.576Z,1008.00
2017-05-20T04:12:13.998Z,1007.97
2017-05-20T04:13:15.437Z,1008.04
2017-05-20T04:14:16.866Z,1008.04
2017-05-20T04:15:18.295Z,1008.05
2017-05-20T04:16:19.724Z,1008.02
2017-05-20T04:17:21.260Z,1008.03
2017-05-20T04:18:22.704Z,1008.05
2017-05-20T04:19:24.127Z,1008.03
2017-05-20T04:20:25.616Z,1008.08
2017-05-20T04:21:27.046Z,1008.03
2017-05-20T04:22:28.472Z,1008.05
2017-05-20T04:23:29.902Z,1008.12
2017-05-20T04:24:31.404Z,1008.14
2017-05-20T04:25:32.829Z,1008.16
2017-05-20T04:26:34.266Z,1008.15
2017-05-20T04:27:35.696Z,1008.17
2017-05-20T04:28:37.124Z,1008.19
2017-05-20T04:29:38.553Z,1008.20
2017-05-20T04:30:39.996Z,1008.26
2017-05-20T04:31:41.530Z,1008.27
2017-05-20T04:32:42.963Z,1008.31
2017-05-20T04:33:44.392Z,1008.33
2017-05-20T04:34:45.824Z,1008.37
2017-05-20T04:35:47.255Z,1008.39
2017-05-20T04:36:48.683Z,1008.42
2017-05-20T04:37:50.110Z,1008.40
2017-05-20T04:38:51.544Z,1008.39
2017-05-20T04:39:52.971Z,1008.46
2017-05-20T04:40:54.396Z,1008.44
2017-05-20T04:41:55.820Z,1008.45
2017-05-20T04:42:57.260Z,1008.46
2017-05-20T04:43:58.692Z,1008.52
2017-05-20T04:45:00.116Z,1008.58
2017-05-20T04:46:01.546Z,1008.59
2017-05-20T04:47:02.976Z,1008.59
2017-05-20T04:48:04.403Z,1008.56
2017-05-20T04:49:05.831Z,1008.56
2017-05-20T04:50:07.266Z,1008.61
2017-05-20T04:51:08.691Z,1008.63
2017-05-20T04:52:10.121Z,1008.62
2017-05-20T04:53:11.560Z,1008.61
2017-05-20T04:54:13.112Z,1008.59
2017-05-20T04:55:14.511Z,1008.62
2017-05-20T04:56:15.936Z,1008.66
2017-05-20T04:57:17.364Z,1008.64
2017-05-20T04:58:18.790Z,1008.68
2017-05-20T04:59:20.222Z,1008.67
2017-05-20T05:00:21.652Z,1008.69
2017-05-20T05:01:23.078Z,1008.70
2017-05-20T05:02:24.498Z,1008.69
2017-05-20T05:03:25.931Z,1008.71
2017-05-20T05:04:27.367Z,1008.70
2017-05-20T05:05:28.789Z,1008.70
2017-05-20T05:06:30.219Z,1008.70
2017-05-20T05:07:31.650Z,1008.72
2017-05-20T05:08:33.076Z,1008.74
2017-05-20T05:09:34.506Z,1008.73
2017-05-20T05:10:35.935Z,1008.74
2017-05-20T05:11:37.366Z,1008.78
2017-05-20T05:12:38.792Z,1008.76
2017-05-20T05:13:40.221Z,1008.82
2017-05-20T05:14:41.648Z,1008.81
2017-05-20T05:15:43.073Z,1008.80
2017-05-20T05:16:44.500Z,1008.84
2017-05-20T05:17:45.921Z,1008.86
2017-05-20T05:18:47.348Z,1008.87
2017-05-20T05:19:48.775Z,1008.85
2017-05-20T05:20:50.203Z,1008.91
2017-05-20T05:21:52.442Z,1008.89
2017-05-20T05:22:53.880Z,1008.95
2017-05-20T05:23:55.318Z,1008.93
2017-05-20T05:24:56.732Z,1008.92
2017-05-20T05:25:58.156Z,1008.98
2017-05-20T05:26:59.580Z,1008.96
2017-05-20T05:28:01.007Z,1008.99
2017-05-20T05:29:02.435Z,1009.04
2017-05-20T05:30:03.866Z,1009.02
2017-05-20T05:31:05.312Z,1009.03
2017-05-20T05:32:06.748Z,1009.06
2017-05-20T05:33:08.176Z,1009.06
2017-05-20T05:34:09.604Z,1009.10
2017-05-20T05:35:11.046Z,1009.08
2017-05-20T05:36:12.467Z,1009.10
2017-05-20T05:37:13.895Z,1009.14
2017-05-20T05:38:15.347Z,1009.16
2017-05-20T05:39:16.775Z,1009.14
2017-05-20T05:40:18.204Z,1009.12
2017-05-20T05:41:19.639Z,1009.12
2017-05-20T05:42:21.146Z,1009.13
2017-05-20T05:43:22.570Z,1009.09
2017-05-20T05:44:24.017Z,1009.11
2017-05-20T05:45:25.444Z,1009.10
2017-05-20T05:46:26.881Z,1009.19
2017-05-20T05:47:28.313Z,1009.21
2017-05-20T05:48:29.738Z,1009.20
2017-05-20T05:49:31.171Z,1009.25
2017-05-20T05:50:32.595Z,1009.24
2017-05-20T05:51:34.023Z,1009.32
2017-05-20T05:52:35.562Z,1009.29
2017-05-20T05:53:38.032Z,1009.29
2017-05-20T05:54:39.474Z,1009.30
2017-05-20T05:55:40.902Z,1009.33
2017-05-20T05:56:42.336Z,1009.31
2017-05-20T05:57:43.763Z,1009.35
2017-05-20T05:58:45.199Z,1009.35
2017-05-20T05:59:46.627Z,1009.36
2017-05-20T06:00:48.056Z,1009.41
2017-05-20T06:01:49.619Z,1009.42
2017-05-20T06:02:51.052Z,1009.43
2017-05-20T06:03:52.469Z,1009.43
2017-05-20T06:04:53.901Z,1009.46
2017-05-20T06:05:55.364Z,1009.45
2017-05-20T06:06:56.793Z,1009.47
2017-05-20T06:07:58.236Z,1009.50
2017-05-20T06:08:59.653Z,1009.48
2017-05-20T06:10:01.085Z,1009.48
2017-05-20T06:11:02.513Z,1009.47
2017-05-20T06:12:03.951Z,1009.50
2017-05-20T06:13:05.481Z,1009.51
2017-05-20T06:14:06.906Z,1009.45
2017-05-20T06:15:08.334Z,1009.49
2017-05-20T06:16:09.809Z,1009.46
2017-05-20T06:17:11.247Z,1009.48
2017-05-20T06:18:12.673Z,1009.50
2017-05-20T06:19:14.099Z,1009.49
2017-05-20T06:20:15.614Z,1009.52
2017-05-20T06:21:17.043Z,1009.49
2017-05-20T06:22:18.473Z,1009.48
2017-05-20T06:23:19.904Z,1009.55
2017-05-20T06:24:21.378Z,1009.50
2017-05-20T06:25:22.807Z,1009.48
2017-05-20T06:26:24.237Z,1009.50
2017-05-20T06:27:25.669Z,1009.51
2017-05-20T06:28:27.105Z,1009.57
2017-05-20T06:29:29.335Z,1009.58
2017-05-20T06:30:30.771Z,1009.60
2017-05-20T06:31:32.208Z,1009.64
2017-05-20T06:32:33.623Z,1009.67
2017-05-20T06:33:35.054Z,1009.67
2017-05-20T06:34:36.487Z,1009.64
2017-05-20T06:35:37.918Z,1009.70
2017-05-20T06:36:39.344Z,1009.68
2017-05-20T06:37:40.772Z,1009.68
2017-05-20T06:38:42.204Z,1009.72
2017-05-20T06:39:43.634Z,1009.66
2017-05-20T06:40:45.066Z,1009.71
2017-05-20T06:41:46.496Z,1009.72
2017-05-20T06:42:47.926Z,1009.74
2017-05-20T06:43:49.351Z,1009.75
2017-05-20T06:44:50.781Z,1009.80
2017-05-20T06:45:52.211Z,1009.77
2017-05-20T06:46:53.647Z,1009.78
2017-05-20T06:47:55.074Z,1009.75
2017-05-20T06:48:56.505Z,1009.78
2017-05-20T06:49:57.935Z,1009.73
2017-05-20T06:50:59.366Z,1009.75
2017-05-20T06:52:00.797Z,1009.75
2017-05-20T06:53:02.229Z,1009.78
2017-05-20T06:54:03.664Z,1009.80
2017-05-20T06:55:05.124Z,1009.78
2017-05-20T06:56:06.535Z,1009.80
2017-05-20T06:57:07.967Z,1009.78
2017-05-20T06:58:09.405Z,1009.83
2017-05-20T06:59:10.832Z,1009.87
2017-05-20T07:00:12.267Z,1009.86
2017-05-20T07:01:13.697Z,1009.89
2017-05-20T07:02:15.132Z,1009.93
2017-05-20T07:03:16.559Z,1009.94
2017-05-20T07:04:17.987Z,1009.98
2017-05-20T07:05:19.425Z,1009.94
2017-05-20T07:06:20.865Z,1010.00
2017-05-20T07:07:22.308Z,1009.98
2017-05-20T07:08:24.509Z,1010.03
2017-05-20T07:09:25.934Z,1010.06
2017-05-20T07:10:27.366Z,1009.99
2017-05-20T07:11:28.801Z,1010.02
2017-05-20T07:12:30.244Z,1010.09
2017-05-20T07:13:31.680Z,1010.01
2017-05-20T07:14:33.106Z,1010.06
2017-05-20T07:15:34.529Z,1010.10
2017-05-20T07:16:36.011Z,1010.05
2017-05-20T07:17:37.449Z,1010.10
2017-05-20T07:18:38.882Z,1010.10
2017-05-20T07:19:40.307Z,1010.13
2017-05-20T07:20:41.746Z,1010.13
2017-05-20T07:21:43.180Z,1010.11
2017-05-20T07:22:44.613Z,1010.15
2017-05-20T07:23:46.060Z,1010.15
2017-05-20T07:24:47.498Z,1010.20
2017-05-20T07:25:48.924Z,1010.21
2017-05-20T07:26:50.359Z,1010.26
2017-05-20T07:27:51.790Z,1010.24
2017-05-20T07:28:53.315Z,1010.24
2017-05-20T07:29:54.742Z,1010.31
2017-05-20T07:30:56.185Z,1010.30
2017-05-20T07:31:58.410Z,1010.32
2017-05-20T07:32:59.856Z,1010.34
2017-05-20T07:34:01.287Z,1010.33
2017-05-20T07:35:02.716Z,1010.36
2017-05-20T07:36:04.153Z,1010.36
2017-05-20T07:37:07.199Z,1010.39
2017-05-20T07:38:08.637Z,1010.36
2017-05-20T07:39:10.070Z,1010.40
2017-05-20T07:40:11.495Z,1010.38
2017-05-20T07:41:12.928Z,1010.44
2017-05-20T07:42:14.360Z,1010.39
2017-05-20T07:43:15.790Z,1010.38
2017-05-20T07:44:17.223Z,1010.37
2017-05-20T07:45:18.656Z,1010.44
2017-05-20T07:46:20.096Z,1010.41
2017-05-20T07:47:21.515Z,1010.44
2017-05-20T07:48:22.948Z,1010.46
2017-05-20T07:49:24.380Z,1010.42
2017-05-20T07:50:25.811Z,1010.44
2017-05-20T07:51:27.255Z,1010.46
2017-05-20T07:52:28.685Z,1010.50
2017-05-20T07:53:30.899Z,1010.47
2017-05-20T07:54:32.339Z,1010.48
2017-05-20T07:55:33.778Z,1010.48
2017-05-20T07:56:35.211Z,1010.57
2017-05-20T07:57:36.650Z,1010.57
2017-05-20T07:58:38.088Z,1010.57
2017-05-20T07:59:39.516Z,1010.61
2017-05-20T08:00:40.952Z,1010.59
2017-05-20T08:01:42.389Z,1010.68
2017-05-20T08:02:43.827Z,1010.60
2017-05-20T08:03:45.262Z,1010.60
2017-05-20T08:04:46.695Z,1010.56
2017-05-20T08:05:48.126Z,1010.54
2017-05-20T08:06:49.559Z,1010.51
2017-05-20T08:07:51.035Z,1010.52
2017-05-20T08:08:52.468Z,1010.50
2017-05-20T08:09:53.917Z,1010.52
2017-05-20T08:10:55.352Z,1010.54
2017-05-20T08:11:56.782Z,1010.54
2017-05-20T08:12:58.210Z,1010.54
2017-05-20T08:13:59.648Z,1010.52
2017-05-20T08:15:01.084Z,1010.52
2017-05-20T08:16:02.518Z,1010.55
2017-05-20T08:17:03.950Z,1010.54
2017-05-20T08:18:06.509Z,1010.57
2017-05-20T08:19:07.953Z,1010.55
2017-05-20T08:20:09.386Z,1010.54
2017-05-20T08:21:10.836Z,1010.59
2017-05-20T08:22:12.287Z,1010.55
2017-05-20T08:23:13.706Z,1010.59
2017-05-20T08:24:15.147Z,1010.55
2017-05-20T08:25:16.602Z,1010.53
2017-05-20T08:26:18.037Z,1010.58
2017-05-20T08:27:19.470Z,1010.61
2017-05-20T08:28:20.897Z,1010.60
2017-05-20T08:29:22.343Z,1010.61
2017-05-20T08:30:23.867Z,1010.67
2017-05-20T08:31:25.296Z,1010.65
2017-05-20T08:32:26.725Z,1010.69
2017-05-20T08:33:28.160Z,1010.78
2017-05-20T08:34:29.594Z,1010.74
2017-05-20T08:35:31.037Z,1010.73
2017-05-20T08:36:32.479Z,1010.78
2017-05-20T08:37:33.920Z,1010.76
2017-05-20T08:38:35.359Z,1010.75
2017-05-20T08:39:36.788Z,1010.81
2017-05-20T08:40:38.234Z,1010.74
2017-05-20T08:41:39.676Z,1010.74
2017-05-20T08:42:41.118Z,1010.79
2017-05-20T08:43:42.550Z,1010.82
2017-05-20T08:44:43.996Z,1010.78
2017-05-20T08:45:45.444Z,1010.80
2017-05-20T08:46:46.878Z,1010.86
2017-05-20T08:47:48.318Z,1010.88
2017-05-20T08:48:49.755Z,1010.79
2017-05-20T08:49:51.264Z,1010.87
2017-05-20T08:50:52.855Z,1010.94
2017-05-20T08:51:54.291Z,1010.93
2017-05-20T08:52:55.721Z,1010.93
2017-05-20T08:53:57.157Z,1010.92
2017-05-20T08:54:58.601Z,1011.00
2017-05-20T08:56:00.038Z,1011.02
2017-05-20T08:57:01.473Z,1010.97
2017-05-20T08:58:02.895Z,1011.04
2017-05-20T08:59:04.329Z,1010.99
2017-05-20T09:00:05.758Z,1011.00
2017-05-20T09:01:07.197Z,1011.01
2017-05-20T09:02:08.641Z,1011.01
2017-05-20T09:03:10.080Z,1011.01
2017-05-20T09:04:11.519Z,1011.05
2017-05-20T09:05:12.953Z,1011.13
2017-05-20T09:06:14.384Z,1011.15
2017-05-20T09:07:15.867Z,1011.20
2017-05-20T09:08:17.299Z,1011.18
2017-05-20T09:09:18.736Z,1011.14
2017-05-20T09:10:20.170Z,1011.11
2017-05-20T09:11:22.568Z,1011.13
2017-05-20T09:12:24.008Z,1011.16
2017-05-20T09:13:25.449Z,1011.10
2017-05-20T09:14:26.888Z,1011.19
2017-05-20T09:15:28.316Z,1011.24
2017-05-20T09:16:30.442Z,1011.26
2017-05-20T09:17:31.874Z,1011.30
2017-05-20T09:18:33.308Z,1011.30
2017-05-20T09:19:34.734Z,1011.21
2017-05-20T09:20:36.167Z,1011.28
2017-05-20T09:21:37.598Z,1011.24
2017-05-20T09:22:39.037Z,1011.23
2017-05-20T09:23:40.473Z,1011.26
2017-05-20T09:24:41.909Z,1011.23
2017-05-20T09:25:43.337Z,1011.24
2017-05-20T09:26:44.772Z,1011.32
2017-05-20T09:27:46.209Z,1011.30
2017-05-20T09:28:47.641Z,1011.25
2017-05-20T09:29:49.070Z,1011.27
2017-05-20T09:30:50.505Z,1011.26
2017-05-20T09:31:51.946Z,1011.32
2017-05-20T09:32:53.380Z,1011.27
2017-05-20T09:33:54.817Z,1011.36
2017-05-20T09:34:56.249Z,1011.30
2017-05-20T09:35:57.689Z,1011.32
2017-05-20T09:36:59.115Z,1011.30
2017-05-20T09:38:00.551Z,1011.25
2017-05-20T09:39:02.804Z,1011.23
2017-05-20T09:40:03.356Z,1011.26
2017-05-20T09:41:04.790Z,1011.27
2017-05-20T09:42:06.220Z,1011.33
2017-05-20T09:43:07.659Z,1011.33
2017-05-20T09:44:09.084Z,1011.37
2017-05-20T09:45:10.518Z,1011.44
2017-05-20T09:46:11.959Z,1011.43
2017-05-20T09:47:13.400Z,1011.47
2017-05-20T09:48:14.865Z,1011.54
2017-05-20T09:49:16.276Z,1011.54
2017-05-20T09:50:18.304Z,1011.53
2017-05-20T09:51:19.098Z,1011.52
2017-05-20T09:52:20.532Z,1011.56
2017-05-20T09:53:21.963Z,1011.53
2017-05-20T09:54:23.393Z,1011.52
2017-05-20T09:55:24.833Z,1011.50
2017-05-20T09:56:26.259Z,1011.53
2017-05-20T09:57:27.697Z,1011.53
2017-05-20T09:58:29.129Z,1011.52
2017-05-20T09:59:31.385Z,1011.51
2017-05-20T10:00:32.817Z,1011.51
2017-05-20T10:01:34.251Z,1011.56
2017-05-20T10:02:35.689Z,1011.51
2017-05-20T10:03:37.196Z,1011.57
2017-05-20T10:04:38.643Z,1011.56
2017-05-20T10:05:40.069Z,1011.60
2017-05-20T10:06:41.530Z,1011.62
2017-05-20T10:07:42.975Z,1011.63
2017-05-20T10:08:44.411Z,1011.68
2017-05-20T10:09:45.852Z,1011.75
2017-05-20T10:10:47.291Z,1011.61
2017-05-20T10:11:48.719Z,1011.59
2017-05-20T10:12:50.149Z,1011.57
2017-05-20T10:13:51.650Z,1011.65
2017-05-20T10:14:53.083Z,1011.63
2017-05-20T10:15:54.517Z,1011.64
2017-05-20T10:16:55.960Z,1011.64
2017-05-20T10:17:57.391Z,1011.56
2017-05-20T10:18:58.822Z,1011.60
2017-05-20T10:20:00.260Z,1011.60
2017-05-20T10:21:01.698Z,1011.62
2017-05-20T10:22:03.147Z,1011.60
2017-05-20T10:23:04.575Z,1011.62
2017-05-20T10:24:06.022Z,1011.64
2017-05-20T10:25:07.552Z,1011.67
2017-05-20T10:26:08.999Z,1011.60
2017-05-20T10:27:10.432Z,1011.65
2017-05-20T10:28:11.881Z,1011.69
2017-05-20T10:29:13.321Z,1011.69
2017-05-20T10:30:14.759Z,1011.68
2017-05-20T10:31:16.201Z,1011.72
2017-05-20T10:32:17.739Z,1011.61
2017-05-20T10:33:19.116Z,1011.62
2017-05-20T10:34:20.551Z,1011.67
2017-05-20T10:35:21.996Z,1011.67
2017-05-20T10:36:23.430Z,1011.63
2017-05-20T10:37:24.881Z,1011.71
2017-05-20T10:38:26.311Z,1011.78
2017-05-20T10:39:28.434Z,1011.78
2017-05-20T10:40:29.874Z,1011.74
2017-05-20T10:41:31.310Z,1011.77
2017-05-20T10:42:32.745Z,1011.81
2017-05-20T10:43:34.195Z,1011.76
2017-05-20T10:44:35.622Z,1011.74
2017-05-20T10:45:37.061Z,1011.70
2017-05-20T10:46:38.499Z,1011.80
2017-05-20T10:47:39.949Z,1011.92
2017-05-20T10:48:41.397Z,1011.86
2017-05-20T10:49:42.927Z,1011.93
2017-05-20T10:50:44.374Z,1011.88
2017-05-20T10:51:45.887Z,1011.86
2017-05-20T10:52:47.321Z,1011.95
2017-05-20T10:53:48.759Z,1011.89
2017-05-20T10:54:50.191Z,1011.87
2017-05-20T10:55:51.632Z,1011.85
2017-05-20T10:56:53.066Z,1011.91
2017-05-20T10:57:54.510Z,1011.86
2017-05-20T10:58:55.953Z,1011.84
2017-05-20T10:59:57.399Z,1011.87
2017-05-20T11:00:58.841Z,1011.87
2017-05-20T11:02:00.280Z,1011.97
2017-05-20T11:03:01.716Z,1012.01
2017-05-20T11:04:03.159Z,1012.08
2017-05-20T11:05:04.605Z,1012.00
2017-05-20T11:06:06.039Z,1011.99
2017-05-20T11:07:07.473Z,1012.05
2017-05-20T11:08:08.914Z,1012.05
2017-05-20T11:09:10.356Z,1012.09
2017-05-20T11:10:11.797Z,1012.09
2017-05-20T11:11:13.230Z,1012.04
2017-05-20T11:12:14.661Z,1012.05
2017-05-20T11:13:16.096Z,1012.06
2017-05-20T11:14:17.539Z,1012.07
2017-05-20T11:15:18.978Z,1011.97
2017-05-20T11:16:20.426Z,1011.96
2017-05-20T11:17:21.866Z,1011.96
2017-05-20T11:18:23.312Z,1012.00
2017-05-20T11:19:24.749Z,1011.94
2017-05-20T11:20:26.187Z,1012.02
2017-05-20T11:21:27.628Z,1011.92
2017-05-20T11:22:29.076Z,1012.00
2017-05-20T11:23:30.518Z,1012.03
2017-05-20T11:24:31.955Z,1012.10
2017-05-20T11:25:33.409Z,1012.15
2017-05-20T11:26:34.839Z,1012.03
2017-05-20T11:27:36.281Z,1012.07
2017-05-20T11:28:37.728Z,1012.17
2017-05-20T11:29:39.174Z,1012.05
2017-05-20T11:30:40.620Z,1012.10
2017-05-20T11:31:42.101Z,1012.15
2017-05-20T11:32:43.508Z,1012.24
2017-05-20T11:33:44.940Z,1012.20
2017-05-20T11:34:46.380Z,1012.22
2017-05-20T11:35:47.816Z,1012.23
2017-05-20T11:36:49.256Z,1012.21
2017-05-20T11:37:50.694Z,1012.13
2017-05-20T11:38:52.138Z,1012.14
2017-05-20T11:39:53.572Z,1012.11
2017-05-20T11:40:55.032Z,1012.16
2017-05-20T11:41:56.464Z,1012.13
2017-05-20T11:42:57.914Z,1012.22
2017-05-20T11:43:59.357Z,1012.21
2017-05-20T11:45:00.800Z,1012.19
2017-05-20T11:46:02.237Z,1012.26
2017-05-20T11:47:03.685Z,1012.27
2017-05-20T11:48:05.122Z,1012.28
2017-05-20T11:49:06.562Z,1012.38
2017-05-20T11:50:08.269Z,1012.43
2017-05-20T11:51:09.512Z,1012.25
2017-05-20T11:52:10.949Z,1012.23
2017-05-20T11:53:12.392Z,1012.36
2017-05-20T11:54:13.835Z,1012.44
2017-05-20T11:55:15.267Z,1012.37
2017-05-20T11:56:16.703Z,1012.31
2017-05-20T11:57:18.142Z,1012.35
2017-05-20T11:58:19.574Z,1012.41
2017-05-20T11:59:21.006Z,1012.39
2017-05-20T12:00:22.445Z,1012.35
2017-05-20T12:01:23.888Z,1012.39
2017-05-20T12:02:25.326Z,1012.33
2017-05-20T12:03:26.759Z,1012.40
2017-05-20T12:04:28.195Z,1012.44
2017-05-20T12:05:29.630Z,1012.48
2017-05-20T12:06:31.076Z,1012.57
2017-05-20T12:07:32.514Z,1012.47
2017-05-20T12:08:33.951Z,1012.51
2017-05-20T12:09:35.387Z,1012.46
2017-05-20T12:10:36.832Z,1012.49
2017-05-20T12:11:38.810Z,1012.51
2017-05-20T12:12:40.245Z,1012.52
2017-05-20T12:13:41.688Z,1012.51
2017-05-20T12:14:43.128Z,1012.49
2017-05-20T12:15:44.568Z,1012.50
2017-05-20T12:16:46.002Z,1012.57
2017-05-20T12:17:47.435Z,1012.57
2017-05-20T12:18:49.817Z,1012.53
2017-05-20T12:19:51.269Z,1012.60
2017-05-20T12:20:52.738Z,1012.64
2017-05-20T12:21:54.177Z,1012.65
2017-05-20T12:22:55.622Z,1012.63